KOPL/OPL METAR and TAF weather

Enter ICAO airport designator
Station Type Date Time Source
KOPL METAR 2021/09/28 15:55 UTC NOAA

KOPL 281555Z AUTO 02004KT 3SM TSRA SCT040 BKN060 OVC100 24/23 A2999 RMK AO2 LTG DSNT ALQS P0004 T02380232


Station Type Date Time Source
KOPL Decoded METAR 2021/09/28 15:55 UTC NOAA

Station name not available
Sep 28, 2021 - 11:55 AM EDT / 2021.09.28 1555 UTC
Wind: from the NNE (020 degrees) at 5 MPH (4 KT):0
Visibility: 3 mile(s):0
Sky conditions: overcast
Weather: rain with thunder; Lightning observed
Precipitation last hour: 0.04 inches
Temperature: 74.8 F (23.8 C)
Dew Point: 73.8 F (23.2 C)
Relative Humidity: 96%
Pressure (altimeter): 29.99 in. Hg (1015 hPa)
ob: KOPL 281555Z AUTO 02004KT 3SM TSRA SCT040 BKN060 OVC100 24/23 A2999 RMK AO2 LTG DSNT ALQS P0004 T02380232
cycle: 16

Station Type Date Time Source
KOPL TAF UTC NOAA

Error!

Example: see airport list